createdAt,value
2018-05-19T00:01:07.341Z,8.20
2018-05-19T00:03:36.066Z,8.20
2018-05-19T00:06:03.959Z,8.20
2018-05-19T00:08:31.892Z,8.20
2018-05-19T00:10:59.792Z,8.10
2018-05-19T00:13:27.738Z,8.20
2018-05-19T00:15:55.621Z,8.30
2018-05-19T00:18:23.561Z,8.30
2018-05-19T00:20:51.442Z,8.10
2018-05-19T00:23:19.334Z,8.00
2018-05-19T00:25:47.272Z,7.90
2018-05-19T00:28:15.164Z,7.80
2018-05-19T00:30:43.136Z,7.80
2018-05-19T00:33:11.006Z,7.90
2018-05-19T00:35:38.940Z,8.00
2018-05-19T00:38:07.611Z,8.10
2018-05-19T00:40:36.317Z,8.10
2018-05-19T00:43:04.247Z,8.00
2018-05-19T00:45:32.182Z,8.10
2018-05-19T00:48:00.067Z,8.10
2018-05-19T00:50:28.017Z,8.10
2018-05-19T00:52:55.906Z,8.10
2018-05-19T00:55:23.875Z,8.10
2018-05-19T00:57:52.122Z,8.10
2018-05-19T01:00:20.105Z,8.10
2018-05-19T01:02:47.986Z,8.00
2018-05-19T01:05:15.921Z,8.10
2018-05-19T01:07:43.790Z,8.00
2018-05-19T01:10:11.722Z,8.00
2018-05-19T01:12:39.628Z,8.00
2018-05-19T01:15:07.573Z,7.80
2018-05-19T01:17:35.457Z,7.70
2018-05-19T01:20:04.179Z,7.80
2018-05-19T01:22:32.074Z,7.80
2018-05-19T01:25:00.041Z,7.70
2018-05-19T01:27:27.937Z,7.60
2018-05-19T01:29:55.872Z,7.60
2018-05-19T01:32:23.766Z,7.60
2018-05-19T01:34:51.723Z,7.50
2018-05-19T01:37:19.641Z,7.60
2018-05-19T01:39:47.540Z,7.60
2018-05-19T01:42:15.490Z,7.70
2018-05-19T01:44:43.381Z,7.80
2018-05-19T01:47:11.320Z,7.80
2018-05-19T01:49:39.206Z,7.80
2018-05-19T01:52:07.157Z,7.80
2018-05-19T01:54:35.051Z,7.80
2018-05-19T01:57:02.990Z,7.80
2018-05-19T01:59:30.872Z,7.80
2018-05-19T02:01:58.829Z,7.80
2018-05-19T02:04:26.769Z,7.80
2018-05-19T02:06:54.718Z,7.80
2018-05-19T02:09:22.624Z,7.80
2018-05-19T02:11:51.341Z,7.80
2018-05-19T02:14:19.221Z,7.70
2018-05-19T02:16:47.946Z,7.70
2018-05-19T02:19:15.830Z,7.70
2018-05-19T02:21:44.532Z,7.70
2018-05-19T02:24:12.434Z,7.70
2018-05-19T02:26:40.376Z,7.60
2018-05-19T02:29:08.274Z,7.60
2018-05-19T02:31:36.225Z,7.50
2018-05-19T02:34:04.128Z,7.40
2018-05-19T02:36:32.074Z,7.40
2018-05-19T02:39:00.737Z,7.30
2018-05-19T02:41:28.681Z,7.30
2018-05-19T02:43:56.577Z,7.40
2018-05-19T02:46:24.515Z,7.20
2018-05-19T02:48:52.417Z,7.20
2018-05-19T02:51:20.373Z,7.10
2018-05-19T02:53:49.030Z,7.20
2018-05-19T02:56:16.948Z,7.20
2018-05-19T02:58:44.897Z,7.20
2018-05-19T03:01:13.552Z,7.20
2018-05-19T03:03:41.497Z,7.20
2018-05-19T03:06:09.387Z,7.20
2018-05-19T03:08:37.346Z,7.30
2018-05-19T03:11:05.282Z,7.40
2018-05-19T03:13:33.232Z,7.50
2018-05-19T03:16:01.889Z,7.50
2018-05-19T03:18:29.839Z,7.50
2018-05-19T03:20:57.739Z,7.40
2018-05-19T03:23:25.689Z,7.30
2018-05-19T03:25:53.605Z,7.30
2018-05-19T03:28:22.338Z,7.40
2018-05-19T03:30:50.251Z,7.40
2018-05-19T03:33:18.957Z,7.50
2018-05-19T03:35:46.845Z,7.50
2018-05-19T03:38:14.789Z,7.50
2018-05-19T03:40:43.441Z,7.50
2018-05-19T03:43:11.760Z,7.50
2018-05-19T03:45:39.637Z,7.50
2018-05-19T03:48:07.574Z,7.50
2018-05-19T03:50:36.224Z,7.50
2018-05-19T03:53:04.186Z,7.50
2018-05-19T03:55:32.070Z,7.40
2018-05-19T03:58:11.741Z,7.40
2018-05-19T04:00:51.415Z,7.40
2018-05-19T04:03:19.354Z,7.40
2018-05-19T04:05:47.236Z,7.40
2018-05-19T04:08:15.164Z,7.40
2018-05-19T04:10:43.055Z,7.40
2018-05-19T04:13:10.981Z,7.50
2018-05-19T04:15:38.923Z,7.50
2018-05-19T04:18:06.813Z,7.50
2018-05-19T04:20:34.749Z,7.50
2018-05-19T04:23:02.749Z,7.40
2018-05-19T04:25:30.691Z,7.30
2018-05-19T04:27:59.329Z,7.50
2018-05-19T04:30:28.085Z,7.40
2018-05-19T04:32:55.964Z,7.40
2018-05-19T04:35:23.904Z,7.50
2018-05-19T04:37:53.591Z,7.50
2018-05-19T04:40:21.542Z,7.50
2018-05-19T04:42:49.426Z,7.60
2018-05-19T04:45:17.371Z,7.60
2018-05-19T04:47:45.266Z,7.70
2018-05-19T04:50:13.216Z,7.90
2018-05-19T04:52:41.101Z,8.00
2018-05-19T04:55:09.044Z,8.20
2018-05-19T04:57:36.930Z,8.40
2018-05-19T05:00:04.894Z,8.50
2018-05-19T05:02:32.782Z,8.70
2018-05-19T05:05:00.714Z,8.90
2018-05-19T05:07:32.009Z,9.10
2018-05-19T05:10:04.285Z,9.90
2018-05-19T05:12:35.652Z,9.80
2018-05-19T05:15:07.273Z,10.20
2018-05-19T05:17:37.193Z,10.30
2018-05-19T05:20:07.423Z,10.70
2018-05-19T05:22:40.305Z,11.10
2018-05-19T05:25:11.711Z,11.10
2018-05-19T05:27:54.595Z,11.10
2018-05-19T05:30:25.097Z,11.30
2018-05-19T05:32:56.593Z,11.80
2018-05-19T05:35:28.333Z,12.20
2018-05-19T05:37:59.291Z,12.00
2018-05-19T05:40:27.968Z,12.00
2018-05-19T05:42:55.864Z,12.00
2018-05-19T05:45:26.567Z,11.70
2018-05-19T05:47:55.273Z,11.70
2018-05-19T05:50:23.169Z,11.60
2018-05-19T05:52:51.131Z,11.50
2018-05-19T05:55:19.023Z,12.20
2018-05-19T05:57:46.956Z,12.90
2018-05-19T06:00:14.836Z,13.50
2018-05-19T06:02:43.667Z,14.10
2018-05-19T06:05:12.687Z,13.80
2018-05-19T06:07:41.170Z,13.30
2018-05-19T06:10:09.397Z,13.20
2018-05-19T06:12:37.361Z,14.30
2018-05-19T06:15:05.328Z,15.40
2018-05-19T06:17:33.267Z,15.90
2018-05-19T06:20:01.168Z,15.70
2018-05-19T06:22:29.127Z,16.30
2018-05-19T06:24:57.013Z,15.90
2018-05-19T06:27:24.957Z,15.70
2018-05-19T06:29:52.859Z,15.70
2018-05-19T06:32:20.811Z,15.50
2018-05-19T06:34:48.742Z,15.50
2018-05-19T06:37:16.705Z,15.30
2018-05-19T06:39:45.397Z,15.40
2018-05-19T06:42:14.106Z,15.60
2018-05-19T06:44:42.027Z,15.60
2018-05-19T06:47:09.977Z,15.90
2018-05-19T06:49:37.880Z,15.80
2018-05-19T06:52:05.831Z,16.40
2018-05-19T06:54:33.907Z,16.90
2018-05-19T06:57:01.790Z,17.70
2018-05-19T06:59:30.546Z,18.20
2018-05-19T07:01:58.606Z,18.20
2018-05-19T07:04:26.559Z,18.30
2018-05-19T07:06:54.446Z,18.00
2018-05-19T07:09:22.493Z,18.30
2018-05-19T07:11:50.349Z,18.60
2018-05-19T07:14:19.057Z,18.70
2018-05-19T07:16:46.950Z,18.70
2018-05-19T07:19:17.487Z,19.30
2018-05-19T07:21:47.191Z,19.80
2018-05-19T07:24:17.300Z,20.20
2018-05-19T07:26:45.418Z,20.30
2018-05-19T07:29:13.392Z,19.10
2018-05-19T07:31:43.254Z,19.50
2018-05-19T07:34:12.064Z,20.60
2018-05-19T07:36:40.290Z,20.60
2018-05-19T07:39:08.235Z,21.30
2018-05-19T07:41:36.124Z,20.90
2018-05-19T07:44:04.869Z,21.60
2018-05-19T07:46:32.776Z,21.60
2018-05-19T07:49:02.701Z,23.10
2018-05-19T07:51:31.378Z,23.10
2018-05-19T07:53:59.406Z,23.10
2018-05-19T07:56:27.285Z,23.00
2018-05-19T07:58:55.220Z,23.70
2018-05-19T08:01:23.119Z,24.20
2018-05-19T08:03:51.103Z,25.40
2018-05-19T08:06:19.002Z,25.30
2018-05-19T08:08:47.706Z,26.50
2018-05-19T08:11:17.416Z,26.50
2018-05-19T08:13:45.547Z,25.80
2018-05-19T08:16:14.249Z,24.30
2018-05-19T08:18:42.191Z,24.30
2018-05-19T08:21:10.185Z,25.50
2018-05-19T08:23:38.125Z,26.00
2018-05-19T08:26:07.859Z,25.50
2018-05-19T08:28:36.852Z,25.30
2018-05-19T08:31:05.583Z,23.80
2018-05-19T08:33:33.468Z,23.80
2018-05-19T08:36:01.402Z,25.40
2018-05-19T08:38:30.050Z,23.60
2018-05-19T08:40:57.987Z,23.60
2018-05-19T08:43:25.874Z,23.80
2018-05-19T08:45:53.824Z,24.60
2018-05-19T08:48:21.768Z,25.00
2018-05-19T08:50:50.497Z,26.20
2018-05-19T08:53:18.413Z,26.10
2018-05-19T08:55:46.356Z,25.80
2018-05-19T08:58:14.270Z,25.20
2018-05-19T09:00:42.995Z,24.00
2018-05-19T09:03:10.889Z,24.00
2018-05-19T09:05:38.849Z,22.90
2018-05-19T09:08:06.781Z,22.30
2018-05-19T09:10:34.731Z,20.80
2018-05-19T09:13:03.402Z,20.10
2018-05-19T09:15:31.355Z,20.00
2018-05-19T09:17:59.241Z,19.70
2018-05-19T09:20:27.298Z,19.60
2018-05-19T09:22:55.192Z,19.50
2018-05-19T09:25:23.860Z,18.80
2018-05-19T09:27:53.827Z,18.80
2018-05-19T09:30:21.728Z,19.50
2018-05-19T09:32:49.674Z,20.70
2018-05-19T09:35:17.586Z,21.10
2018-05-19T09:37:45.536Z,21.20
2018-05-19T09:40:13.434Z,21.50
2018-05-19T09:42:41.412Z,21.30
2018-05-19T09:45:10.074Z,22.90
2018-05-19T09:47:38.102Z,22.90
2018-05-19T09:50:06.786Z,23.90
2018-05-19T09:52:34.739Z,23.80
2018-05-19T09:55:03.441Z,22.80
2018-05-19T09:57:31.407Z,22.80
2018-05-19T09:59:59.314Z,22.30
2018-05-19T10:02:27.261Z,20.70
2018-05-19T10:04:55.194Z,21.80
2018-05-19T10:07:23.924Z,23.60
2018-05-19T10:09:51.806Z,23.60
2018-05-19T10:12:19.708Z,23.80
2018-05-19T10:14:47.635Z,23.60
2018-05-19T10:17:15.551Z,23.10
2018-05-19T10:19:43.500Z,22.80
2018-05-19T10:22:11.388Z,21.90
2018-05-19T10:24:39.338Z,21.60
2018-05-19T10:27:07.224Z,22.00
2018-05-19T10:29:35.187Z,23.40
2018-05-19T10:32:03.124Z,25.20
2018-05-19T10:34:31.058Z,26.00
2018-05-19T10:36:58.944Z,26.10
2018-05-19T10:39:26.906Z,26.50
2018-05-19T10:41:54.827Z,25.70
2018-05-19T10:44:22.770Z,24.40
2018-05-19T10:46:50.848Z,22.60
2018-05-19T10:49:18.789Z,22.70
2018-05-19T10:51:46.674Z,23.70
2018-05-19T10:54:14.627Z,24.90
2018-05-19T10:56:42.515Z,24.70
2018-05-19T10:59:10.501Z,24.90
2018-05-19T11:01:38.389Z,23.70
2018-05-19T11:04:06.361Z,23.50
2018-05-19T11:06:34.273Z,23.60
2018-05-19T11:09:02.294Z,23.70
2018-05-19T11:11:30.282Z,23.70
2018-05-19T11:13:59.813Z,24.90
2018-05-19T11:16:27.988Z,25.10
2018-05-19T11:18:55.944Z,25.80
2018-05-19T11:21:23.914Z,25.70
2018-05-19T11:23:52.580Z,26.30
2018-05-19T11:26:20.513Z,26.20
2018-05-19T11:28:49.174Z,27.00
2018-05-19T11:31:17.109Z,26.90
2018-05-19T11:33:44.992Z,26.70
2018-05-19T11:36:13.744Z,25.60
2018-05-19T11:38:41.638Z,25.50
2018-05-19T11:41:09.594Z,25.10
2018-05-19T11:43:37.472Z,24.90
2018-05-19T11:46:05.413Z,24.20
2018-05-19T11:48:33.325Z,23.70
2018-05-19T11:51:02.026Z,26.20
2018-05-19T11:53:30.761Z,25.50
2018-05-19T11:55:58.761Z,25.50
2018-05-19T11:58:26.646Z,26.00
2018-05-19T12:00:54.609Z,26.40
2018-05-19T12:03:23.259Z,26.50
2018-05-19T12:05:51.289Z,26.50
2018-05-19T12:08:19.135Z,26.70
2018-05-19T12:10:47.850Z,25.80
2018-05-19T12:13:15.753Z,25.70
2018-05-19T12:15:43.640Z,26.90
2018-05-19T12:18:11.614Z,27.20
2018-05-19T12:20:39.489Z,27.20
2018-05-19T12:23:07.527Z,27.10
2018-05-19T12:25:36.380Z,26.60
2018-05-19T12:28:04.342Z,26.60
2018-05-19T12:30:32.985Z,25.90
2018-05-19T12:33:00.920Z,25.80
2018-05-19T12:35:28.810Z,26.10
2018-05-19T12:37:56.748Z,26.10
2018-05-19T12:40:24.639Z,25.80
2018-05-19T12:42:52.569Z,26.10
2018-05-19T12:45:21.218Z,26.30
2018-05-19T12:47:49.161Z,26.30
2018-05-19T12:50:17.815Z,25.50
2018-05-19T12:52:46.536Z,25.90
2018-05-19T12:55:14.473Z,25.90
2018-05-19T12:57:52.585Z,24.60
2018-05-19T13:00:23.590Z,25.00
2018-05-19T13:02:52.791Z,24.90
2018-05-19T13:05:20.738Z,25.00
2018-05-19T13:07:48.687Z,24.40
2018-05-19T13:10:16.589Z,24.50
2018-05-19T13:12:44.526Z,24.20
2018-05-19T13:15:12.454Z,24.30
2018-05-19T13:17:40.416Z,24.00
2018-05-19T13:20:08.435Z,23.90
2018-05-19T13:22:36.373Z,23.80
2018-05-19T13:25:05.152Z,23.80
2018-05-19T13:27:33.110Z,23.80
2018-05-19T13:30:01.118Z,24.20
2018-05-19T13:32:29.772Z,23.70
2018-05-19T13:34:57.727Z,23.70
2018-05-19T13:37:25.631Z,23.10
2018-05-19T13:39:54.363Z,22.80
2018-05-19T13:42:22.295Z,22.80
2018-05-19T13:44:51.001Z,22.70
2018-05-19T13:47:18.891Z,22.60
2018-05-19T13:49:46.839Z,22.70
2018-05-19T13:52:14.791Z,22.90
2018-05-19T13:54:43.489Z,23.10
2018-05-19T13:57:11.386Z,23.10
2018-05-19T13:59:39.376Z,22.40
2018-05-19T14:02:07.270Z,22.50
2018-05-19T14:04:35.205Z,22.60
2018-05-19T14:07:03.102Z,22.10
2018-05-19T14:09:31.043Z,21.40
2018-05-19T14:11:58.938Z,21.20
2018-05-19T14:14:27.039Z,21.10
2018-05-19T14:16:55.687Z,21.60
2018-05-19T14:19:23.619Z,21.50
2018-05-19T14:21:51.508Z,21.60
2018-05-19T14:24:19.468Z,21.50
2018-05-19T14:26:47.356Z,21.40
2018-05-19T14:29:15.304Z,21.20
2018-05-19T14:31:43.197Z,21.30
2018-05-19T14:34:11.136Z,21.30
2018-05-19T14:36:41.336Z,21.40
2018-05-19T14:39:10.044Z,21.50
2018-05-19T14:41:37.976Z,21.50
2018-05-19T14:44:05.873Z,21.30
2018-05-19T14:46:33.855Z,20.90
2018-05-19T14:49:01.793Z,20.90
2018-05-19T14:51:30.529Z,20.60
2018-05-19T14:53:58.434Z,20.60
2018-05-19T14:56:26.385Z,20.40
2018-05-19T14:58:54.282Z,20.60
2018-05-19T15:01:23.045Z,20.50
2018-05-19T15:03:50.931Z,20.50
2018-05-19T15:06:18.880Z,20.50
2018-05-19T15:08:46.762Z,20.30
2018-05-19T15:11:14.709Z,20.30
2018-05-19T15:13:42.635Z,20.40
2018-05-19T15:16:10.583Z,20.40
2018-05-19T15:18:38.469Z,20.40
2018-05-19T15:21:07.202Z,20.10
2018-05-19T15:23:35.117Z,20.10
2018-05-19T15:26:03.843Z,20.00
2018-05-19T15:28:31.850Z,20.00
2018-05-19T15:30:59.820Z,20.00
2018-05-19T15:33:27.715Z,19.70
2018-05-19T15:35:56.421Z,19.30
2018-05-19T15:38:24.320Z,19.20
2018-05-19T15:40:52.273Z,19.30
2018-05-19T15:43:20.164Z,19.20
2018-05-19T15:45:48.059Z,19.20
2018-05-19T15:48:16.032Z,19.20
2018-05-19T15:50:43.927Z,19.30
2018-05-19T15:53:12.645Z,19.20
2018-05-19T15:55:40.546Z,19.20
2018-05-19T15:58:08.496Z,19.20
2018-05-19T16:00:38.371Z,19.10
2018-05-19T16:03:07.573Z,18.80
2018-05-19T16:05:35.500Z,18.80
2018-05-19T16:08:03.466Z,19.00
2018-05-19T16:10:31.377Z,18.90
2018-05-19T16:13:00.092Z,18.90
2018-05-19T16:15:28.032Z,18.80
2018-05-19T16:17:56.792Z,18.70
2018-05-19T16:20:24.720Z,18.70
2018-05-19T16:22:53.123Z,18.60
2018-05-19T16:25:22.757Z,18.40
2018-05-19T16:27:51.542Z,18.40
2018-05-19T16:30:19.466Z,18.30
2018-05-19T16:32:47.462Z,18.40
2018-05-19T16:35:15.378Z,18.30
2018-05-19T16:37:43.338Z,18.30
2018-05-19T16:40:11.999Z,18.30
2018-05-19T16:42:39.957Z,18.30
2018-05-19T16:45:07.910Z,18.30
2018-05-19T16:47:35.870Z,18.20
2018-05-19T16:50:03.823Z,18.30
2018-05-19T16:52:32.273Z,18.10
2018-05-19T16:55:01.316Z,18.10
2018-05-19T16:57:29.356Z,18.00
2018-05-19T16:59:58.143Z,17.90
2018-05-19T17:02:26.139Z,17.90
2018-05-19T17:04:54.037Z,17.80
2018-05-19T17:07:22.178Z,17.70
2018-05-19T17:09:50.344Z,17.70
2018-05-19T17:12:18.292Z,17.60
2018-05-19T17:14:47.039Z,17.40
2018-05-19T17:17:14.997Z,17.40
2018-05-19T17:19:43.131Z,17.30
2018-05-19T17:22:11.258Z,17.30
2018-05-19T17:24:39.306Z,17.30
2018-05-19T17:27:07.230Z,17.30
2018-05-19T17:29:35.471Z,17.20
2018-05-19T17:32:04.161Z,17.10
2018-05-19T17:34:32.127Z,17.00
2018-05-19T17:37:00.052Z,17.00
2018-05-19T17:39:28.832Z,17.00
2018-05-19T17:41:56.729Z,16.90
2018-05-19T17:44:24.692Z,16.90
2018-05-19T17:46:52.633Z,16.80
2018-05-19T17:49:20.637Z,16.80
2018-05-19T17:51:48.609Z,16.70
2018-05-19T17:54:17.159Z,16.70
2018-05-19T17:56:45.865Z,16.50
2018-05-19T17:59:14.944Z,16.50
2018-05-19T18:01:42.950Z,16.50
2018-05-19T18:04:10.913Z,16.40
2018-05-19T18:06:40.503Z,16.30
2018-05-19T18:09:09.238Z,16.20
2018-05-19T18:11:37.133Z,16.20
2018-05-19T18:14:05.061Z,16.20
2018-05-19T18:16:33.106Z,16.20
2018-05-19T18:19:01.821Z,15.90
2018-05-19T18:21:29.778Z,15.90
2018-05-19T18:23:58.432Z,15.70
2018-05-19T18:26:26.370Z,15.70
2018-05-19T18:28:55.083Z,15.60
2018-05-19T18:31:23.041Z,15.50
2018-05-19T18:33:51.178Z,15.50
2018-05-19T18:36:19.150Z,15.50
2018-05-19T18:38:47.067Z,15.40
2018-05-19T18:41:15.034Z,15.30
2018-05-19T18:43:42.939Z,15.20
2018-05-19T18:46:11.660Z,15.00
2018-05-19T18:48:39.586Z,15.00
2018-05-19T18:51:08.332Z,14.80
2018-05-19T18:53:36.217Z,14.80
2018-05-19T18:56:04.189Z,14.70
2018-05-19T18:58:32.086Z,14.60
2018-05-19T19:01:00.807Z,14.40
2018-05-19T19:03:28.706Z,14.40
2018-05-19T19:05:56.684Z,14.30
2018-05-19T19:08:24.557Z,14.20
2018-05-19T19:10:52.496Z,14.00
2018-05-19T19:13:20.386Z,13.90
2018-05-19T19:15:48.333Z,13.80
2018-05-19T19:18:16.309Z,13.60
2018-05-19T19:20:44.301Z,13.50
2018-05-19T19:23:12.192Z,13.40
2018-05-19T19:25:40.928Z,13.30
2018-05-19T19:28:08.861Z,13.30
2018-05-19T19:30:37.575Z,13.00
2018-05-19T19:33:05.456Z,13.00
2018-05-19T19:35:33.337Z,13.00
2018-05-19T19:38:01.309Z,12.90
2018-05-19T19:40:29.274Z,12.80
2018-05-19T19:42:57.274Z,12.70
2018-05-19T19:45:25.149Z,12.60
2018-05-19T19:48:00.172Z,12.60
2018-05-19T19:50:28.056Z,12.40
2018-05-19T19:52:56.007Z,12.40
2018-05-19T19:55:23.925Z,12.30
2018-05-19T19:57:51.872Z,12.20
2018-05-19T20:00:20.523Z,12.00
2018-05-19T20:02:48.475Z,12.00
2018-05-19T20:05:16.380Z,11.90
2018-05-19T20:07:44.406Z,11.80
2018-05-19T20:10:12.293Z,11.80
2018-05-19T20:12:40.251Z,11.80
2018-05-19T20:15:08.150Z,11.70
2018-05-19T20:17:36.117Z,11.60
2018-05-19T20:20:04.118Z,11.60
2018-05-19T20:22:32.859Z,11.40
2018-05-19T20:25:00.753Z,11.40
2018-05-19T20:27:28.726Z,11.40
2018-05-19T20:29:59.158Z,11.30
2018-05-19T20:32:27.204Z,11.20
2018-05-19T20:34:55.217Z,11.10
2018-05-19T20:37:24.387Z,11.00
2018-05-19T20:39:52.565Z,11.00
2018-05-19T20:42:21.110Z,11.00
2018-05-19T20:44:49.098Z,10.80
2018-05-19T20:47:18.020Z,10.70
2018-05-19T20:49:45.981Z,10.70
2018-05-19T20:52:13.879Z,10.70
2018-05-19T20:54:42.590Z,10.60
2018-05-19T20:57:10.485Z,10.60
2018-05-19T20:59:38.440Z,10.60
2018-05-19T21:02:06.332Z,10.50
2018-05-19T21:04:34.330Z,10.40
2018-05-19T21:07:02.290Z,10.30
2018-05-19T21:09:30.242Z,10.20
2018-05-19T21:11:58.444Z,10.20
2018-05-19T21:14:26.400Z,10.10
2018-05-19T21:16:54.457Z,10.00
2018-05-19T21:19:22.485Z,10.00
2018-05-19T21:21:51.142Z,9.90
2018-05-19T21:24:19.180Z,9.90
2018-05-19T21:26:47.121Z,9.90
2018-05-19T21:29:15.304Z,9.80
2018-05-19T21:31:43.202Z,9.70
2018-05-19T21:34:13.520Z,9.70
2018-05-19T21:36:43.353Z,9.60
2018-05-19T21:39:11.326Z,9.60
2018-05-19T21:41:39.235Z,9.60
2018-05-19T21:44:08.133Z,9.40
2018-05-19T21:46:36.045Z,9.40
2018-05-19T21:49:04.017Z,9.30
2018-05-19T21:51:31.919Z,9.10
2018-05-19T21:53:59.861Z,9.10
2018-05-19T21:56:27.754Z,9.10
2018-05-19T21:58:55.710Z,9.00
2018-05-19T22:01:25.137Z,9.00
2018-05-19T22:03:54.147Z,9.00
2018-05-19T22:06:22.809Z,8.90
2018-05-19T22:08:50.786Z,8.90
2018-05-19T22:11:19.441Z,8.70
2018-05-19T22:13:47.327Z,8.70
2018-05-19T22:16:15.295Z,8.70
2018-05-19T22:18:43.191Z,8.70
2018-05-19T22:21:11.891Z,8.60
2018-05-19T22:23:39.794Z,8.60
2018-05-19T22:26:07.769Z,8.70
2018-05-19T22:28:35.723Z,8.70
2018-05-19T22:31:03.715Z,8.60
2018-05-19T22:33:31.605Z,8.60
2018-05-19T22:35:59.638Z,8.60
2018-05-19T22:38:27.544Z,8.60
2018-05-19T22:40:55.917Z,8.50
2018-05-19T22:43:23.914Z,8.40
2018-05-19T22:45:52.622Z,8.20
2018-05-19T22:48:20.510Z,8.20
2018-05-19T22:50:49.443Z,8.20
2018-05-19T22:53:17.547Z,8.20
2018-05-19T22:55:45.499Z,8.20
2018-05-19T22:58:13.453Z,8.30
2018-05-19T23:00:41.389Z,8.20
2018-05-19T23:03:09.296Z,8.10
2018-05-19T23:05:37.233Z,8.10
2018-05-19T23:08:05.125Z,8.00
2018-05-19T23:10:33.070Z,7.90
2018-05-19T23:13:00.959Z,7.90
2018-05-19T23:15:28.901Z,8.00
2018-05-19T23:17:56.798Z,7.90
2018-05-19T23:20:24.766Z,7.70
2018-05-19T23:22:54.705Z,7.70
2018-05-19T23:25:22.656Z,7.60
2018-05-19T23:27:50.599Z,7.70
2018-05-19T23:30:18.537Z,7.70
2018-05-19T23:32:47.173Z,7.60
2018-05-19T23:35:15.125Z,7.60
2018-05-19T23:37:43.009Z,7.50
2018-05-19T23:40:10.941Z,7.50
2018-05-19T23:42:38.833Z,7.60
2018-05-19T23:45:06.789Z,7.50
2018-05-19T23:47:34.694Z,7.40
2018-05-19T23:50:02.644Z,7.30
2018-05-19T23:52:30.551Z,7.30
2018-05-19T23:54:59.296Z,7.00
2018-05-19T23:57:27.181Z,7.00
2018-05-19T23:59:55.147Z,7.10
